Aérodrome :
LOGIN :

S'inscrire | Disclaimer

   EN    FR    IT 

 










Légende :    VFR   VFR Marginal   IFR   IFR Intensif   IFR Très Intensif
Visi : 
Plafond : 
>= 8 km
>= 3000ft
5 à 8 km
1000 à 3000 ft
1500m à 5 km
500 à 1000 ft
800 à 1500m
200 à 500 ft
< 800m
< 200 ft
Symboles :   Orages  Brouillard  Fortes neiges  Fortes précipitations  Vent > 20 kt
SIGMETs :   Divers  Orages  Givrage  Turbulence  Onde Orograph.  Cendres Volcan.







- Altitude de l'aérodrome : 322 ft


LHSN - Szolnok

DERNIER METAR :
  • 172215Z 21012KT CAVOK 08/00 Q1010 NOSIG RMK BLU

METARs EXPIRÉS :
  • 172145Z 21012KT 9999 BKN045 08/01 Q1010 NOSIG RMK BLU
  • 172115Z 21012KT CAVOK 08/01 Q1010 NOSIG RMK BLU
  • 172045Z 21008KT CAVOK 08/02 Q1010 NOSIG RMK BLU
  • 172015Z 21008KT 9999 FEW020 BKN045 08/02 Q1010 RERA NOSIG RMK BLU
  • 171945Z 21006KT 9999 -RA SCT020 BKN050 BKN065 08/03 Q1010 TEMPO NSW RMK BLU

TAF TAF LHSN
Valide du 17 à 21h jusqu'au 18 à 06h UTC


172015Z 1721/1806 22007KT CAVOK
BECMG 1723/1802 9999 BKN030 BKN083
TEMPO 1801/1806 6000 -RA BKN020 OVC030
Pas de NOTAMs connus pour ce terrain.



MET'MAP, la Météo Aéronautique d'un coup d'oeil ! - Copyright ORBIFLY Décembre 2007 - Disclaimer

ORBIFLY MET'MAP TEAM :

Programmation & Développement : Alexandra Zaïnal
Conception & Développement : Baudouin d'Aumeries
Co-Programmation & Développement : Marc-Olivier Méhu
Soutien technique & logistique : Manuel Goepfert

Contact : metmap@orbifly.com




SOURCES & CREDITS :

   NOAA